Time;durP1;ratioP1;P1;durP2;ratioP2;P2;SDS_P1;SDS_P2;PMS_P1;PMS_P2;Temp;Humidity;BMP_temperature;BMP_pressure;BME280_temperature;BME280_humidity;BME280_pressure;Samples;Min_cycle;Max_cycle;Signal;HPM_P1;HPM_P2
2022/11/08 00:02:15;;;;;;;5.57;2.45;;;;;;;;;;4938767;28;20046;-63
2022/11/08 00:04:45;;;;;;;5.97;1.42;;;;;;;;;;4970889;28;20051;-62
2022/11/08 00:15:43;;;;;;;6.03;1.23;;;;;;;;;;4931122;28;20458;-63
2022/11/08 00:18:14;;;;;;;5.15;1.60;;;;;;;;;;4990004;28;20058;-63
2022/11/08 00:20:46;;;;;;;12.32;1.50;;;;;;;;;;4973680;28;20061;-62
2022/11/08 00:23:16;;;;;;;4.53;1.48;;;;;;;;;;4982266;28;20053;-62
2022/11/08 00:25:53;;;;;;;5.10;1.52;;;;;;;;;;5009238;28;20050;-62
2022/11/08 00:28:24;;;;;;;7.22;1.65;;;;;;;;;;4993336;28;20387;-62
2022/11/08 00:30:54;;;;;;;8.25;1.38;;;;;;;;;;5000467;28;20066;-62
2022/11/08 00:33:24;;;;;;;6.30;1.30;;;;;;;;;;4970496;28;20066;-63
2022/11/08 00:35:58;;;;;;;10.20;2.30;;;;;;;;;;4970738;28;20050;-63
2022/11/08 00:38:29;;;;;;;7.45;2.45;;;;;;;;;;4997622;28;20498;-63
2022/11/08 00:40:59;;;;;;;10.18;1.95;;;;;;;;;;4976883;28;20054;-62
2022/11/08 00:43:29;;;;;;;8.52;1.95;;;;;;;;;;4989436;28;20061;-62
2022/11/08 00:45:59;;;;;;;15.05;1.88;;;;;;;;;;4989655;28;20067;-62
2022/11/08 00:48:29;;;;;;;12.23;2.20;;;;;;;;;;4989772;28;20062;-62
2022/11/08 00:51:04;;;;;;;5.50;2.17;;;;;;;;;;4989740;28;20518;-63
2022/11/08 00:53:38;;;;;;;8.02;1.90;;;;;;;;;;4937554;28;20050;-62
2022/11/08 00:56:12;;;;;;;7.65;1.95;;;;;;;;;;4970080;28;20059;-62
2022/11/08 00:58:43;;;;;;;7.45;1.73;;;;;;;;;;4981830;28;20518;-63
2022/11/08 01:01:16;;;;;;;7.80;2.75;;;;;;;;;;4989455;28;20050;-62
2022/11/08 01:03:48;;;;;;;7.97;2.10;;;;;;;;;;4976753;28;20062;-63
2022/11/08 01:06:20;;;;;;;9.23;2.60;;;;;;;;;;4953850;28;20059;-63
2022/11/08 01:08:50;;;;;;;;;;;;;;;;;;4970468;28;20050;-63
2022/11/08 01:11:21;;;;;;;10.32;2.42;;;;;;;;;;4970245;28;19922;-64
2022/11/08 01:13:55;;;;;;;6.97;1.95;;;;;;;;;;4969955;28;20066;-63
2022/11/08 01:16:29;;;;;;;10.07;2.20;;;;;;;;;;4970043;28;20046;-63
2022/11/08 01:19:00;;;;;;;5.88;1.80;;;;;;;;;;4969876;28;20059;-63
2022/11/08 01:21:30;;;;;;;6.88;1.83;;;;;;;;;;4960545;28;20799;-63
2022/11/08 01:24:00;;;;;;;5.70;2.28;;;;;;;;;;4995596;28;20049;-63
2022/11/08 01:26:30;;;;;;;7.53;1.60;;;;;;;;;;4976019;28;20054;-63
2022/11/08 01:29:00;;;;;;;9.13;1.88;;;;;;;;;;5008809;28;20057;-64
2022/11/08 01:31:31;;;;;;;6.20;1.77;;;;;;;;;;5008870;28;20057;-64
2022/11/08 01:34:01;;;;;;;7.97;1.70;;;;;;;;;;5008819;28;20537;-63
2022/11/08 01:36:31;;;;;;;8.57;1.85;;;;;;;;;;5008813;28;20080;-63
2022/11/08 01:39:01;;;;;;;4.95;1.70;;;;;;;;;;5020039;28;20057;-63
2022/11/08 01:41:32;;;;;;;7.22;2.03;;;;;;;;;;5028575;28;20049;-63
2022/11/08 01:44:02;;;;;;;6.97;1.80;;;;;;;;;;4995645;28;20068;-63
2022/11/08 01:46:36;;;;;;;6.93;2.40;;;;;;;;;;5028711;28;20493;-63
2022/11/08 01:49:24;;;;;;;10.18;2.05;;;;;;;;;;5028216;28;20050;-63
2022/11/08 01:52:01;;;;;;;8.15;3.13;;;;;;;;;;5028504;28;20401;-63
2022/11/08 01:54:43;;;;;;;8.23;2.10;;;;;;;;;;4995688;28;20060;-63
2022/11/08 01:57:19;;;;;;;10.57;2.33;;;;;;;;;;5028317;28;20062;-63
2022/11/08 01:59:52;;;;;;;8.52;2.13;;;;;;;;;;4995636;28;20058;-63
2022/11/08 02:02:23;;;;;;;8.68;2.20;;;;;;;;;;5008098;28;20050;-63
2022/11/08 02:04:54;;;;;;;8.80;2.08;;;;;;;;;;5008512;28;20078;-63
2022/11/08 02:07:25;;;;;;;11.77;2.50;;;;;;;;;;5012014;28;20057;-63
2022/11/08 02:09:56;;;;;;;8.27;2.22;;;;;;;;;;4963543;28;20151;-63
2022/11/08 02:12:27;;;;;;;12.77;2.30;;;;;;;;;;5011959;28;20084;-64
2022/11/08 02:14:58;;;;;;;7.40;2.13;;;;;;;;;;5011945;28;20437;-64
2022/11/08 02:17:28;;;;;;;9.18;1.80;;;;;;;;;;5012220;28;20061;-63
2022/11/08 02:20:00;;;;;;;7.55;2.25;;;;;;;;;;5011939;28;20054;-63
2022/11/08 02:22:39;;;;;;;8.43;2.65;;;;;;;;;;4996046;28;20061;-64
2022/11/08 02:25:09;;;;;;;13.57;2.33;;;;;;;;;;5011659;28;20053;-64
2022/11/08 02:27:39;;;;;;;10.27;2.30;;;;;;;;;;5046194;28;20061;-64
2022/11/08 02:30:09;;;;;;;11.35;2.97;;;;;;;;;;5051230;28;20059;-63
2022/11/08 02:32:41;;;;;;;7.75;2.40;;;;;;;;;;5051086;28;20119;-63
2022/11/08 02:35:16;;;;;;;7.95;2.30;;;;;;;;;;5051232;28;20048;-63
2022/11/08 02:37:47;;;;;;;8.10;2.03;;;;;;;;;;5051077;28;20493;-63
2022/11/08 02:40:17;;;;;;;9.68;2.38;;;;;;;;;;5017935;28;20060;-63
2022/11/08 02:42:47;;;;;;;8.98;2.10;;;;;;;;;;5050966;28;20049;-64
2022/11/08 02:45:17;;;;;;;9.55;2.33;;;;;;;;;;5051180;28;20052;-63
2022/11/08 02:47:47;;;;;;;6.20;2.22;;;;;;;;;;5062987;28;20519;-65
2022/11/08 02:50:17;;;;;;;7.55;2.10;;;;;;;;;;5070889;28;20045;-63
2022/11/08 02:52:47;;;;;;;7.95;2.33;;;;;;;;;;5071273;28;20049;-63
2022/11/08 02:55:18;;;;;;;9.77;2.42;;;;;;;;;;5021131;28;20049;-63
2022/11/08 02:57:48;;;;;;;11.68;2.60;;;;;;;;;;5004948;28;20570;-63
2022/11/08 03:00:19;;;;;;;8.52;2.10;;;;;;;;;;5070720;28;20052;-64
2022/11/08 03:02:53;;;;;;;9.48;2.50;;;;;;;;;;5071042;28;20055;-63
2022/11/08 03:05:25;;;;;;;9.13;2.22;;;;;;;;;;5050552;28;20536;-64
2022/11/08 03:07:56;;;;;;;6.35;2.08;;;;;;;;;;5019199;28;20046;-63
2022/11/08 03:10:27;;;;;;;7.75;2.05;;;;;;;;;;4991008;28;20057;-63
2022/11/08 03:12:58;;;;;;;12.65;2.25;;;;;;;;;;4971812;28;20081;-63
2022/11/08 03:15:29;;;;;;;8.48;2.78;;;;;;;;;;4971718;28;20131;-63
2022/11/08 03:18:01;;;;;;;7.05;2.30;;;;;;;;;;4971766;28;20062;-63
2022/11/08 03:20:31;;;;;;;7.07;2.45;;;;;;;;;;4971750;28;20407;-63
2022/11/08 03:23:04;;;;;;;11.38;2.80;;;;;;;;;;4971805;28;20427;-63
2022/11/08 03:25:34;;;;;;;7.47;2.30;;;;;;;;;;4908588;28;20062;-64
2022/11/08 03:28:07;;;;;;;11.45;2.35;;;;;;;;;;4971536;28;20062;-63
2022/11/08 03:30:37;;;;;;;10.10;1.88;;;;;;;;;;4923689;28;20524;-63
2022/11/08 03:33:08;;;;;;;7.95;2.28;;;;;;;;;;4971558;28;20098;-63
2022/11/08 03:35:38;;;;;;;9.75;2.40;;;;;;;;;;4941242;28;20061;-63
2022/11/08 03:38:08;;;;;;;8.65;2.08;;;;;;;;;;4990886;28;20086;-63
2022/11/08 03:40:38;;;;;;;7.88;1.80;;;;;;;;;;4942411;28;20051;-63
2022/11/08 03:43:09;;;;;;;8.23;1.85;;;;;;;;;;4990853;28;20069;-63
2022/11/08 03:45:39;;;;;;;8.32;2.05;;;;;;;;;;4958247;28;20054;-63
2022/11/08 03:48:09;;;;;;;6.25;1.83;;;;;;;;;;4972472;28;20061;-63
2022/11/08 03:50:39;;;;;;;7.90;2.42;;;;;;;;;;4962629;28;20064;-63
2022/11/08 03:53:08;;;;;;;6.72;2.25;;;;;;;;;;5013640;28;20054;-63
2022/11/08 03:55:38;;;;;;;6.43;2.58;;;;;;;;;;5030058;28;20054;-63
2022/11/08 03:58:08;;;;;;;7.70;2.13;;;;;;;;;;5029756;28;20096;-63
2022/11/08 04:00:39;;;;;;;6.60;2.40;;;;;;;;;;5029435;28;20425;-64
2022/11/08 04:03:09;;;;;;;7.28;2.08;;;;;;;;;;5029737;28;20061;-63
2022/11/08 04:05:39;;;;;;;5.00;2.15;;;;;;;;;;5029626;28;20057;-63
2022/11/08 04:08:08;;;;;;;7.15;2.08;;;;;;;;;;4976916;28;20041;-63
2022/11/08 04:10:38;;;;;;;8.32;2.17;;;;;;;;;;5009855;28;20076;-63
2022/11/08 04:15:58;;;;;;;6.55;1.83;;;;;;;;;;5009904;28;20050;-63
2022/11/08 04:21:20;;;;;;;6.45;2.10;;;;;;;;;;4990018;28;20050;-63
2022/11/08 04:23:51;;;;;;;8.77;2.15;;;;;;;;;;4973870;28;20074;-63
2022/11/08 04:26:22;;;;;;;9.38;2.60;;;;;;;;;;5004410;28;20057;-63
2022/11/08 04:28:52;;;;;;;6.70;2.08;;;;;;;;;;5009115;28;20058;-63
2022/11/08 04:31:22;;;;;;;6.00;2.20;;;;;;;;;;5009750;28;20050;-63
2022/11/08 04:33:52;;;;;;;8.07;2.38;;;;;;;;;;5009345;28;20062;-63
2022/11/08 04:36:22;;;;;;;8.80;2.40;;;;;;;;;;5009472;28;20054;-64
2022/11/08 04:38:52;;;;;;;5.05;1.98;;;;;;;;;;4995017;28;20062;-63
2022/11/08 04:41:25;;;;;;;6.10;2.25;;;;;;;;;;4974141;28;20094;-63
2022/11/08 04:43:56;;;;;;;8.80;2.13;;;;;;;;;;4989781;28;20535;-63
2022/11/08 04:46:28;;;;;;;5.28;1.95;;;;;;;;;;4956504;28;20061;-63
2022/11/08 04:49:00;;;;;;;6.88;2.08;;;;;;;;;;5009458;28;20517;-63
2022/11/08 04:51:32;;;;;;;13.40;2.50;;;;;;;;;;4993364;28;20046;-63
2022/11/08 04:54:05;;;;;;;;;;;;;;;;;;5009668;28;20065;-64
2022/11/08 04:56:35;;;;;;;6.88;2.40;;;;;;;;;;4992845;28;19921;-63
2022/11/08 04:59:07;;;;;;;10.73;2.15;;;;;;;;;;4975608;28;20057;-63
2022/11/08 05:01:40;;;;;;;7.70;1.77;;;;;;;;;;5051290;28;20048;-63
2022/11/08 05:04:11;;;;;;;7.40;2.42;;;;;;;;;;5051156;28;20044;-63
2022/11/08 05:06:42;;;;;;;6.85;2.05;;;;;;;;;;5032470;28;20056;-63
2022/11/08 05:09:11;;;;;;;8.63;2.75;;;;;;;;;;5015466;28;20049;-63
2022/11/08 05:11:42;;;;;;;10.65;2.50;;;;;;;;;;5048799;28;20412;-63
2022/11/08 05:14:12;;;;;;;6.93;2.45;;;;;;;;;;5048068;28;20053;-63
2022/11/08 05:16:42;;;;;;;6.72;2.25;;;;;;;;;;5048976;28;20057;-63
2022/11/08 05:19:12;;;;;;;8.20;2.58;;;;;;;;;;5015543;28;20049;-63
2022/11/08 05:24:31;;;;;;;7.03;1.92;;;;;;;;;;5028198;28;20053;-63
2022/11/08 05:27:01;;;;;;;5.32;1.60;;;;;;;;;;4979827;28;20054;-64
2022/11/08 05:29:31;;;;;;;11.77;2.15;;;;;;;;;;5028609;28;20064;-64
2022/11/08 05:32:04;;;;;;;5.05;1.92;;;;;;;;;;4979830;28;20516;-64
2022/11/08 05:34:34;;;;;;;5.13;2.42;;;;;;;;;;5028350;28;20053;-64
2022/11/08 05:37:04;;;;;;;7.68;1.63;;;;;;;;;;5008549;28;20096;-64
2022/11/08 05:39:34;;;;;;;6.57;1.55;;;;;;;;;;5008429;28;20559;-64
2022/11/08 05:42:05;;;;;;;4.50;1.67;;;;;;;;;;4972632;28;20050;-65
2022/11/08 05:44:35;;;;;;;3.80;1.50;;;;;;;;;;4941156;28;20061;-64
2022/11/08 05:47:04;;;;;;;5.75;1.88;;;;;;;;;;4973551;28;20059;-65
2022/11/08 05:49:35;;;;;;;6.22;1.95;;;;;;;;;;4941115;28;20058;-66
2022/11/08 05:52:06;;;;;;;5.15;1.50;;;;;;;;;;4950386;28;20063;-65
2022/11/08 05:54:36;;;;;;;3.78;1.48;;;;;;;;;;4935091;29;20504;-65
2022/11/08 05:57:06;;;;;;;4.13;2.22;;;;;;;;;;4935213;29;20060;-64
2022/11/08 05:59:36;;;;;;;5.53;1.35;;;;;;;;;;4898772;28;20755;-64
2022/11/08 06:02:06;;;;;;;4.55;1.85;;;;;;;;;;4963129;28;20070;-64
2022/11/08 06:04:36;;;;;;;7.60;1.73;;;;;;;;;;4973145;28;20054;-64
2022/11/08 06:07:06;;;;;;;4.40;1.80;;;;;;;;;;4973067;28;20061;-64
2022/11/08 06:09:36;;;;;;;4.30;1.60;;;;;;;;;;4941106;28;20058;-64
2022/11/08 06:12:06;;;;;;;5.10;1.90;;;;;;;;;;4956731;28;20058;-64
2022/11/08 06:14:36;;;;;;;4.88;1.42;;;;;;;;;;4999653;28;20061;-64
2022/11/08 06:17:05;;;;;;;5.80;1.85;;;;;;;;;;4982817;28;20057;-64
2022/11/08 06:19:36;;;;;;;3.83;1.80;;;;;;;;;;5041851;28;20064;-64
2022/11/08 06:22:06;;;;;;;6.25;2.17;;;;;;;;;;5035380;28;20063;-64
2022/11/08 06:24:36;;;;;;;5.70;1.83;;;;;;;;;;5035394;28;20053;-64
2022/11/08 06:27:06;;;;;;;5.55;2.00;;;;;;;;;;5051463;28;20049;-64
2022/11/08 06:29:36;;;;;;;7.72;1.75;;;;;;;;;;5051501;28;20065;-64
2022/11/08 06:32:06;;;;;;;5.97;1.45;;;;;;;;;;5051440;28;20053;-64
2022/11/08 06:34:36;;;;;;;5.93;1.77;;;;;;;;;;5018140;28;20068;-65
2022/11/08 06:37:07;;;;;;;6.30;1.83;;;;;;;;;;5031272;28;20532;-64
2022/11/08 06:39:37;;;;;;;3.63;1.13;;;;;;;;;;4982462;28;20045;-65
2022/11/08 06:42:07;;;;;;;3.05;1.40;;;;;;;;;;4982585;28;20425;-65
2022/11/08 06:44:37;;;;;;;3.38;1.20;;;;;;;;;;4982259;28;20057;-65
2022/11/08 06:47:07;;;;;;;7.57;2.05;;;;;;;;;;5031104;28;20081;-65
2022/11/08 06:49:37;;;;;;;3.70;1.95;;;;;;;;;;5011197;28;20049;-65
2022/11/08 06:52:07;;;;;;;7.85;1.50;;;;;;;;;;5010770;28;20062;-64
2022/11/08 06:54:37;;;;;;;5.90;1.70;;;;;;;;;;5011445;28;20187;-65
2022/11/08 06:57:07;;;;;;;7.80;1.65;;;;;;;;;;5011144;28;20046;-65
2022/11/08 06:59:38;;;;;;;5.20;1.65;;;;;;;;;;5011459;28;20476;-64
2022/11/08 07:02:10;;;;;;;4.40;1.27;;;;;;;;;;5011116;28;20061;-64
2022/11/08 07:04:41;;;;;;;6.63;1.30;;;;;;;;;;5010886;28;20490;-65
2022/11/08 07:07:11;;;;;;;5.72;1.90;;;;;;;;;;4962262;28;20054;-65
2022/11/08 07:09:42;;;;;;;5.50;1.40;;;;;;;;;;4991338;28;20518;-65
2022/11/08 07:12:13;;;;;;;5.72;1.58;;;;;;;;;;4975609;28;20516;-65
2022/11/08 07:14:43;;;;;;;6.60;2.00;;;;;;;;;;4974950;28;20501;-64
2022/11/08 07:17:14;;;;;;;6.13;1.67;;;;;;;;;;4991447;28;20067;-64
2022/11/08 07:19:45;;;;;;;4.55;1.88;;;;;;;;;;4991133;28;20050;-64
2022/11/08 07:22:15;;;;;;;7.50;1.63;;;;;;;;;;4975325;28;20050;-65
2022/11/08 07:24:45;;;;;;;5.22;1.40;;;;;;;;;;4974727;28;20097;-65
2022/11/08 07:27:15;;;;;;;6.53;1.90;;;;;;;;;;4949113;28;20054;-64
2022/11/08 07:29:44;;;;;;;6.95;1.80;;;;;;;;;;4908894;28;20062;-65
2022/11/08 07:32:14;;;;;;;6.38;1.90;;;;;;;;;;4971749;28;20066;-64
2022/11/08 07:34:44;;;;;;;5.28;1.77;;;;;;;;;;4971703;28;20055;-65
2022/11/08 07:37:14;;;;;;;6.95;1.98;;;;;;;;;;4971615;28;20526;-65
2022/11/08 07:39:44;;;;;;;4.72;1.52;;;;;;;;;;4951979;28;20088;-65
2022/11/08 07:42:14;;;;;;;5.30;1.80;;;;;;;;;;4970059;28;20085;-64
2022/11/08 07:44:46;;;;;;;4.25;1.65;;;;;;;;;;4970955;28;20058;-64
2022/11/08 07:47:16;;;;;;;8.15;2.05;;;;;;;;;;4948419;28;20055;-66
2022/11/08 07:49:47;;;;;;;4.72;1.77;;;;;;;;;;4990969;28;20168;-65
2022/11/08 07:52:17;;;;;;;3.85;1.98;;;;;;;;;;4958398;28;20534;-64
2022/11/08 07:54:47;;;;;;;4.30;1.63;;;;;;;;;;4990906;28;20053;-64
2022/11/08 07:57:17;;;;;;;5.28;1.67;;;;;;;;;;4990545;28;20058;-64
2022/11/08 07:59:49;;;;;;;4.63;1.90;;;;;;;;;;4974716;28;20065;-65
2022/11/08 08:02:19;;;;;;;5.15;1.60;;;;;;;;;;4958223;28;20490;-64
2022/11/08 08:04:49;;;;;;;6.75;1.75;;;;;;;;;;4989563;28;20462;-65
2022/11/08 08:07:19;;;;;;;6.88;1.70;;;;;;;;;;4990557;28;20057;-64
2022/11/08 08:09:49;;;;;;;3.88;1.50;;;;;;;;;;4990341;28;20058;-64
2022/11/08 08:12:19;;;;;;;3.97;1.38;;;;;;;;;;4990467;28;20057;-65
2022/11/08 08:14:49;;;;;;;7.90;1.67;;;;;;;;;;4974516;28;20058;-64
2022/11/08 08:17:19;;;;;;;4.65;1.83;;;;;;;;;;5008951;28;20464;-64
2022/11/08 08:19:49;;;;;;;5.30;1.65;;;;;;;;;;5029596;28;20045;-65
2022/11/08 08:22:19;;;;;;;4.35;1.60;;;;;;;;;;5040049;28;20064;-64
2022/11/08 08:24:49;;;;;;;6.45;1.85;;;;;;;;;;5051782;28;20500;-64
2022/11/08 08:27:19;;;;;;;5.03;1.70;;;;;;;;;;5049557;28;20057;-64
2022/11/08 08:29:49;;;;;;;8.50;1.83;;;;;;;;;;5051591;28;20049;-65
2022/11/08 08:32:19;;;;;;;4.70;1.73;;;;;;;;;;5069185;28;20064;-64
2022/11/08 08:34:49;;;;;;;3.97;1.80;;;;;;;;;;5035493;28;20059;-65
2022/11/08 08:37:19;;;;;;;3.83;1.50;;;;;;;;;;5069289;28;20083;-65
2022/11/08 08:39:49;;;;;;;5.38;1.63;;;;;;;;;;5069254;28;20552;-65
2022/11/08 08:42:19;;;;;;;4.47;1.42;;;;;;;;;;5069119;28;20060;-65
2022/11/08 08:44:49;;;;;;;4.68;1.73;;;;;;;;;;5052309;28;20064;-65
2022/11/08 08:47:19;;;;;;;5.82;1.50;;;;;;;;;;5019467;28;20048;-65
2022/11/08 08:49:48;;;;;;;3.85;1.65;;;;;;;;;;5069026;28;20496;-65
2022/11/08 08:52:19;;;;;;;5.05;1.60;;;;;;;;;;5069155;28;20552;-65
2022/11/08 08:54:49;;;;;;;7.40;1.63;;;;;;;;;;5069042;28;20051;-65
2022/11/08 08:57:19;;;;;;;5.97;1.52;;;;;;;;;;5069216;28;20068;-64
2022/11/08 08:59:49;;;;;;;8.90;2.50;;;;;;;;;;5068813;28;20474;-65
2022/11/08 09:02:40;;;;;;;7.18;1.80;;;;;;;;;;5028710;28;20198;-65
2022/11/08 09:05:12;;;;;;;10.23;2.10;;;;;;;;;;5028839;28;20053;-65
2022/11/08 09:07:43;;;;;;;3.60;1.80;;;;;;;;;;5028767;28;20050;-65
2022/11/08 09:10:13;;;;;;;4.30;1.73;;;;;;;;;;5028901;28;20058;-65
2022/11/08 09:12:44;;;;;;;10.32;2.28;;;;;;;;;;5029021;28;20537;-64
2022/11/08 09:15:14;;;;;;;7.15;2.25;;;;;;;;;;4997980;28;20053;-64
2022/11/08 09:17:44;;;;;;;4.68;2.00;;;;;;;;;;5033142;28;20045;-64
2022/11/08 09:20:14;;;;;;;5.72;2.35;;;;;;;;;;5032879;28;20417;-64
2022/11/08 09:22:44;;;;;;;9.02;2.80;;;;;;;;;;5016271;28;20051;-64
2022/11/08 09:25:15;;;;;;;7.88;2.42;;;;;;;;;;5033196;28;20054;-64
2022/11/08 09:27:45;;;;;;;4.95;1.80;;;;;;;;;;4999801;28;20416;-64
2022/11/08 09:30:15;;;;;;;4.90;1.90;;;;;;;;;;4992961;28;20043;-64
2022/11/08 09:32:45;;;;;;;7.55;2.03;;;;;;;;;;4945226;28;20059;-64
2022/11/08 09:35:29;;;;;;;5.22;2.05;;;;;;;;;;4993298;28;20058;-63
2022/11/08 09:37:59;;;;;;;10.13;1.67;;;;;;;;;;4993416;28;20054;-64
2022/11/08 09:40:29;;;;;;;6.43;2.33;;;;;;;;;;5015874;28;20049;-63
2022/11/08 09:43:06;;;;;;;3.58;1.70;;;;;;;;;;4999660;28;20061;-63
2022/11/08 09:45:45;;;;;;;4.80;1.63;;;;;;;;;;5032540;28;20053;-63
2022/11/08 09:48:25;;;;;;;11.82;2.70;;;;;;;;;;5032216;28;20057;-63
2022/11/08 09:50:58;;;;;;;5.28;1.95;;;;;;;;;;5032564;28;20065;-62
2022/11/08 09:53:34;;;;;;;8.25;2.70;;;;;;;;;;5032537;28;20154;-63
2022/11/08 09:56:24;;;;;;;7.97;2.45;;;;;;;;;;4999440;28;20053;-62
2022/11/08 09:59:03;;;;;;;6.30;2.33;;;;;;;;;;5031969;28;20056;-63
2022/11/08 10:01:34;;;;;;;;;;;;;;;;;;5032680;28;20049;-63
2022/11/08 10:04:21;;;;;;;8.27;2.30;;;;;;;;;;5031968;28;19921;-62
2022/11/08 10:06:54;;;;;;;4.78;1.55;;;;;;;;;;5002552;28;20497;-63
2022/11/08 10:10:04;;;;;;;6.65;2.08;;;;;;;;;;5022183;28;20059;-63
2022/11/08 10:12:55;;;;;;;5.97;2.03;;;;;;;;;;5071878;28;20065;-63
2022/11/08 10:15:49;;;;;;;5.03;1.85;;;;;;;;;;5071941;28;20562;-62
2022/11/08 10:18:53;;;;;;;6.88;2.00;;;;;;;;;;5071773;28;20044;-63
2022/11/08 10:21:48;;;;;;;7.45;2.00;;;;;;;;;;5071797;28;20052;-63
2022/11/08 10:24:36;;;;;;;5.88;2.08;;;;;;;;;;5071622;28;20048;-62
2022/11/08 10:27:15;;;;;;;7.75;2.50;;;;;;;;;;5053368;28;20044;-64
2022/11/08 10:29:51;;;;;;;14.32;2.53;;;;;;;;;;5035497;28;20052;-62
2022/11/08 10:32:24;;;;;;;7.45;2.47;;;;;;;;;;5019447;28;20056;-62
2022/11/08 10:35:18;;;;;;;5.72;2.08;;;;;;;;;;5068169;28;20057;-62
2022/11/08 10:37:50;;;;;;;6.47;2.00;;;;;;;;;;4998701;28;20050;-62
2022/11/08 10:40:29;;;;;;;5.40;1.85;;;;;;;;;;5031510;28;20065;-62
2022/11/08 10:43:06;;;;;;;11.43;5.15;;;;;;;;;;5014561;28;20076;-63
2022/11/08 10:45:37;;;;;;;11.93;4.80;;;;;;;;;;5031501;28;20054;-62
2022/11/08 10:48:12;;;;;;;5.15;1.92;;;;;;;;;;5031114;28;20045;-62
2022/11/08 10:50:49;;;;;;;7.70;1.90;;;;;;;;;;5031299;28;20053;-62
2022/11/08 10:53:26;;;;;;;5.03;1.50;;;;;;;;;;5031387;28;20049;-61
2022/11/08 10:56:05;;;;;;;7.20;3.78;;;;;;;;;;4998408;28;20053;-61
2022/11/08 10:58:38;;;;;;;10.98;1.83;;;;;;;;;;5031086;28;20084;-62
2022/11/08 11:01:24;;;;;;;6.43;2.60;;;;;;;;;;5014308;28;20429;-62
2022/11/08 11:03:54;;;;;;;2.65;1.25;;;;;;;;;;5031216;28;20453;-62
2022/11/08 11:06:32;;;;;;;2.63;1.08;;;;;;;;;;5007107;28;20054;-62
2022/11/08 11:09:17;;;;;;;3.72;1.13;;;;;;;;;;4991535;28;20057;-62
2022/11/08 11:11:58;;;;;;;3.13;1.00;;;;;;;;;;4991303;28;20061;-62
2022/11/08 11:14:29;;;;;;;3.58;1.40;;;;;;;;;;5001803;28;20169;-63
2022/11/08 11:17:07;;;;;;;4.32;1.65;;;;;;;;;;5030494;28;20061;-61
2022/11/08 11:19:37;;;;;;;30.98;13.85;;;;;;;;;;5013400;28;20046;-62
2022/11/08 11:22:08;;;;;;;14.48;7.78;;;;;;;;;;4991004;28;20434;-62
2022/11/08 11:24:53;;;;;;;4.25;1.60;;;;;;;;;;4991049;28;20055;-62
2022/11/08 11:27:36;;;;;;;4.72;2.47;;;;;;;;;;4975288;28;20074;-62
2022/11/08 11:30:27;;;;;;;5.40;1.58;;;;;;;;;;4991111;28;20054;-63
2022/11/08 11:33:23;;;;;;;2.60;1.52;;;;;;;;;;4942796;28;20062;-62
2022/11/08 11:36:11;;;;;;;5.88;1.50;;;;;;;;;;4975481;28;20062;-62
2022/11/08 11:39:13;;;;;;;7.93;2.70;;;;;;;;;;4974095;28;20577;-62
2022/11/08 11:42:08;;;;;;;23.60;14.30;;;;;;;;;;4971479;28;20055;-62
2022/11/08 11:45:24;;;;;;;2.88;1.42;;;;;;;;;;4949743;28;20078;-61
2022/11/08 11:48:03;;;;;;;3.47;1.42;;;;;;;;;;4951795;28;20078;-62
2022/11/08 11:50:34;;;;;;;;;;;;;;;;;;4920546;29;20428;-62
2022/11/08 11:53:35;;;;;;;4.38;1.35;;;;;;;;;;4952008;29;19923;-62
2022/11/08 11:56:34;;;;;;;3.40;1.23;;;;;;;;;;4932668;29;20077;-61
2022/11/08 11:59:38;;;;;;;3.90;1.60;;;;;;;;;;4920832;29;20067;-62
2022/11/08 12:02:30;;;;;;;5.28;1.55;;;;;;;;;;4951812;29;20082;-62
2022/11/08 12:05:19;;;;;;;5.03;1.23;;;;;;;;;;4951800;29;20455;-62
2022/11/08 12:08:17;;;;;;;6.25;1.42;;;;;;;;;;4951705;29;20104;-62
2022/11/08 12:11:05;;;;;;;3.42;1.38;;;;;;;;;;4951592;29;20047;-61
2022/11/08 12:14:03;;;;;;;3.28;2.10;;;;;;;;;;4951522;29;20070;-62
2022/11/08 12:16:42;;;;;;;4.85;2.05;;;;;;;;;;4951738;29;20392;-62
2022/11/08 12:19:30;;;;;;;2.28;1.23;;;;;;;;;;4934372;29;20527;-61
2022/11/08 12:22:28;;;;;;;5.00;1.70;;;;;;;;;;4954828;28;20059;-62
2022/11/08 12:25:09;;;;;;;5.93;1.30;;;;;;;;;;4970512;28;20187;-62
2022/11/08 12:27:54;;;;;;;2.53;1.15;;;;;;;;;;4970655;28;20078;-62
2022/11/08 12:30:36;;;;;;;3.65;1.52;;;;;;;;;;4970677;28;20515;-62
2022/11/08 12:33:27;;;;;;;2.83;1.20;;;;;;;;;;5012863;28;20059;-62
2022/11/08 12:36:17;;;;;;;3.78;1.50;;;;;;;;;;4971486;28;20545;-62
2022/11/08 12:39:00;;;;;;;3.97;1.48;;;;;;;;;;4987978;28;20045;-61
2022/11/08 12:42:03;;;;;;;4.18;1.55;;;;;;;;;;5006297;28;20054;-61
2022/11/08 12:44:41;;;;;;;;;;;;;;;;;;4999551;28;20054;-61
2022/11/08 12:47:31;;;;;;;4.07;1.60;;;;;;;;;;4992781;28;19965;-61
2022/11/08 12:50:10;;;;;;;4.38;1.30;;;;;;;;;;5009260;28;20322;-62
2022/11/08 12:53:04;;;;;;;3.03;1.27;;;;;;;;;;4960962;28;20061;-61
2022/11/08 12:55:40;;;;;;;6.95;2.08;;;;;;;;;;4970112;28;20054;-62
2022/11/08 12:58:46;;;;;;;4.40;1.38;;;;;;;;;;4970114;28;20061;-62
2022/11/08 13:01:20;;;;;;;2.38;1.20;;;;;;;;;;4894019;29;20049;-61
2022/11/08 13:03:59;;;;;;;;;;;;;;;;;;4876027;29;20058;-61
2022/11/08 13:07:02;;;;;;;2.38;1.17;;;;;;;;;;4859790;29;19924;-61
2022/11/08 13:09:45;;;;;;;3.38;1.45;;;;;;;;;;4838334;29;20062;-61
2022/11/08 13:12:28;;;;;;;3.63;1.25;;;;;;;;;;4840033;29;20427;-62
2022/11/08 13:15:00;;;;;;;3.90;1.40;;;;;;;;;;4874225;29;20065;-62
2022/11/08 13:17:31;;;;;;;2.13;1.08;;;;;;;;;;4874466;29;20053;-62
2022/11/08 13:20:05;;;;;;;3.83;1.27;;;;;;;;;;4875260;29;20061;-62
2022/11/08 13:22:39;;;;;;;5.28;1.90;;;;;;;;;;4859738;29;20060;-62
2022/11/08 13:25:12;;;;;;;4.75;1.20;;;;;;;;;;4875145;29;20065;-63
2022/11/08 13:27:44;;;;;;;3.60;1.05;;;;;;;;;;4874814;29;20057;-62
2022/11/08 13:30:14;;;;;;;13.50;7.45;;;;;;;;;;4859281;29;20068;-62
2022/11/08 13:32:53;;;;;;;2.92;1.52;;;;;;;;;;4880645;29;20056;-62
2022/11/08 13:35:32;;;;;;;3.05;1.27;;;;;;;;;;4878334;29;20056;-63
2022/11/08 13:38:23;;;;;;;3.35;1.85;;;;;;;;;;4925060;28;20058;-62
2022/11/08 13:41:17;;;;;;;3.97;1.13;;;;;;;;;;4938203;28;20871;-61
2022/11/08 13:43:48;;;;;;;3.83;1.00;;;;;;;;;;4907180;28;20055;-63
2022/11/08 13:46:24;;;;;;;2.83;1.13;;;;;;;;;;4994935;28;20061;-61
2022/11/08 13:49:02;;;;;;;3.25;1.20;;;;;;;;;;5028419;28;20117;-62
2022/11/08 13:51:36;;;;;;;3.78;1.15;;;;;;;;;;4972537;28;20046;-62
2022/11/08 13:54:21;;;;;;;5.65;1.73;;;;;;;;;;4972916;28;20055;-62
2022/11/08 13:56:54;;;;;;;3.97;1.25;;;;;;;;;;4989140;28;20062;-62
2022/11/08 13:59:30;;;;;;;3.30;1.02;;;;;;;;;;4989070;28;20526;-62
2022/11/08 14:02:24;;;;;;;2.97;1.00;;;;;;;;;;4971135;28;20047;-61
2022/11/08 14:05:07;;;;;;;2.72;1.38;;;;;;;;;;4979612;28;20089;-61
2022/11/08 14:08:02;;;;;;;2.50;1.13;;;;;;;;;;4960369;28;20558;-62
2022/11/08 14:11:05;;;;;;;5.38;1.33;;;;;;;;;;4976548;28;20526;-61
2022/11/08 14:13:50;;;;;;;3.95;1.27;;;;;;;;;;4887426;29;20397;-61
2022/11/08 14:16:25;;;;;;;3.42;1.27;;;;;;;;;;4934744;29;20064;-61
2022/11/08 14:19:15;;;;;;;4.38;1.55;;;;;;;;;;4918635;29;20063;-61
2022/11/08 14:22:00;;;;;;;3.72;1.38;;;;;;;;;;4934623;29;20044;-61
2022/11/08 14:24:37;;;;;;;3.35;1.27;;;;;;;;;;4934461;29;20067;-62
2022/11/08 14:27:10;;;;;;;5.55;1.58;;;;;;;;;;4934530;29;20642;-61
2022/11/08 14:29:41;;;;;;;4.07;1.42;;;;;;;;;;4918595;29;20516;-62
2022/11/08 14:32:19;;;;;;;5.25;1.63;;;;;;;;;;4953357;29;20210;-62
2022/11/08 14:34:49;;;;;;;4.53;1.15;;;;;;;;;;4952805;29;20070;-62
2022/11/08 14:37:26;;;;;;;2.15;1.02;;;;;;;;;;4933996;29;20082;-62
2022/11/08 14:39:57;;;;;;;5.25;1.42;;;;;;;;;;4946201;28;20055;-62
2022/11/08 14:42:27;;;;;;;2.70;1.48;;;;;;;;;;4953335;29;20063;-62
2022/11/08 14:44:57;;;;;;;5.57;1.20;;;;;;;;;;4953047;28;20082;-62
2022/11/08 14:47:31;;;;;;;4.78;1.17;;;;;;;;;;4953262;29;20063;-61
2022/11/08 14:50:01;;;;;;;3.60;1.20;;;;;;;;;;4980216;28;20544;-62
2022/11/08 14:52:32;;;;;;;4.72;1.50;;;;;;;;;;5031488;28;20053;-62
2022/11/08 14:55:09;;;;;;;3.65;1.52;;;;;;;;;;5031041;28;20053;-61
2022/11/08 14:57:44;;;;;;;2.42;0.98;;;;;;;;;;4949685;28;20053;-62
2022/11/08 15:00:17;;;;;;;6.22;1.55;;;;;;;;;;5031232;28;20049;-62
2022/11/08 15:03:02;;;;;;;3.08;0.93;;;;;;;;;;5031504;28;20053;-62
2022/11/08 15:05:41;;;;;;;3.08;1.23;;;;;;;;;;4999243;28;20053;-62
2022/11/08 15:08:28;;;;;;;2.63;1.05;;;;;;;;;;5011101;28;20053;-62
2022/11/08 15:11:11;;;;;;;4.80;1.50;;;;;;;;;;4978656;28;20060;-63
2022/11/08 15:13:48;;;;;;;1.70;0.70;;;;;;;;;;5010713;28;20058;-63
2022/11/08 15:16:18;;;;;;;3.67;1.17;;;;;;;;;;5030875;28;20053;-62
2022/11/08 15:18:49;;;;;;;3.47;1.17;;;;;;;;;;5047340;28;20065;-61
2022/11/08 15:21:28;;;;;;;3.97;1.20;;;;;;;;;;5014108;28;20655;-62
2022/11/08 15:24:14;;;;;;;2.75;1.02;;;;;;;;;;5030656;28;20053;-63
2022/11/08 15:27:04;;;;;;;2.42;1.05;;;;;;;;;;4981767;28;20053;-61
2022/11/08 15:30:02;;;;;;;2.97;1.20;;;;;;;;;;5047048;28;20076;-62
2022/11/08 15:32:37;;;;;;;2.33;1.20;;;;;;;;;;5030440;28;20060;-62
2022/11/08 15:35:31;;;;;;;1.70;0.85;;;;;;;;;;5030557;28;20406;-61
2022/11/08 15:38:21;;;;;;;1.90;1.00;;;;;;;;;;5030662;28;20053;-62
2022/11/08 15:40:54;;;;;;;2.58;1.30;;;;;;;;;;5030241;28;20050;-62
2022/11/08 15:43:37;;;;;;;3.47;0.90;;;;;;;;;;5030490;28;20065;-62
2022/11/08 15:46:32;;;;;;;1.83;0.90;;;;;;;;;;5031640;28;20066;-61
2022/11/08 15:49:18;;;;;;;2.17;1.10;;;;;;;;;;5032403;28;20045;-61